createdAt,value
2023-01-13T00:02:26.489Z,0.50
2023-01-13T00:04:57.412Z,0.40
2023-01-13T00:07:28.244Z,0.70
2023-01-13T00:09:58.986Z,0.90
2023-01-13T00:12:29.823Z,0.50
2023-01-13T00:15:00.480Z,0.60
2023-01-13T00:17:31.198Z,0.50
2023-01-13T00:20:01.932Z,0.80
2023-01-13T00:22:37.890Z,0.70
2023-01-13T00:25:10.168Z,0.60
2023-01-13T00:27:41.166Z,0.60
2023-01-13T00:30:13.804Z,0.50
2023-01-13T00:32:45.147Z,0.60
2023-01-13T00:35:16.192Z,0.90
2023-01-13T00:37:46.908Z,0.40
2023-01-13T00:40:18.335Z,0.60
2023-01-13T00:43:06.872Z,0.50
2023-01-13T00:45:39.293Z,0.50
2023-01-13T00:48:10.005Z,0.70
2023-01-13T00:50:41.185Z,0.50
2023-01-13T00:53:12.745Z,0.40
2023-01-13T00:55:43.679Z,0.50
2023-01-13T00:58:14.369Z,0.50
2023-01-13T01:00:46.092Z,0.60
2023-01-13T01:03:19.174Z,0.60
2023-01-13T01:05:50.131Z,1.00
2023-01-13T01:08:20.953Z,0.20
2023-01-13T01:10:51.620Z,0.50
2023-01-13T01:13:22.325Z,0.50
2023-01-13T01:15:53.165Z,0.40
2023-01-13T01:18:24.135Z,0.50
2023-01-13T01:20:55.022Z,0.20
2023-01-13T01:23:25.667Z,0.50
2023-01-13T01:25:56.751Z,0.40
2023-01-13T01:28:27.461Z,0.40
2023-01-13T01:30:59.981Z,0.70
2023-01-13T01:33:31.090Z,0.30
2023-01-13T01:36:03.495Z,0.40
2023-01-13T01:38:36.567Z,0.90
2023-01-13T01:41:07.548Z,0.40
2023-01-13T01:44:07.310Z,0.40
2023-01-13T01:46:40.242Z,0.30
2023-01-13T01:49:19.205Z,0.50
2023-01-13T01:51:54.429Z,0.60
2023-01-13T01:54:35.451Z,0.40
2023-01-13T01:57:08.619Z,0.40
2023-01-13T01:59:40.383Z,0.50
2023-01-13T02:02:11.605Z,0.40
2023-01-13T02:04:50.954Z,0.40
2023-01-13T02:07:25.381Z,0.60
2023-01-13T02:09:58.004Z,0.20
2023-01-13T02:12:30.445Z,0.30
2023-01-13T02:15:04.410Z,0.30
2023-01-13T02:17:51.260Z,0.30
2023-01-13T02:21:00.303Z,0.30
2023-01-13T02:24:34.163Z,0.30
2023-01-13T02:27:35.587Z,0.30
2023-01-13T02:30:37.128Z,0.20
2023-01-13T02:33:20.876Z,0.40
2023-01-13T02:35:55.839Z,0.60
2023-01-13T02:38:34.613Z,0.30
2023-01-13T02:41:23.798Z,0.30
2023-01-13T02:44:09.178Z,0.50
2023-01-13T02:46:47.868Z,0.20
2023-01-13T02:49:25.259Z,0.20
2023-01-13T02:52:01.428Z,0.50
2023-01-13T02:54:34.618Z,0.50
2023-01-13T02:57:06.382Z,0.40
2023-01-13T02:59:38.718Z,0.80
2023-01-13T03:02:14.064Z,0.40
2023-01-13T03:05:01.926Z,0.30
2023-01-13T03:07:58.512Z,0.70
2023-01-13T03:10:37.265Z,0.30
2023-01-13T03:13:20.825Z,0.30
2023-01-13T03:16:01.318Z,0.30
2023-01-13T03:18:42.670Z,0.30
2023-01-13T03:21:21.528Z,0.30
2023-01-13T03:24:00.079Z,0.40
2023-01-13T03:26:38.077Z,0.30
2023-01-13T03:29:21.485Z,0.30
2023-01-13T03:31:59.088Z,0.60
2023-01-13T03:34:35.684Z,0.30
2023-01-13T03:37:10.188Z,0.50
2023-01-13T03:39:48.254Z,0.40
2023-01-13T03:42:24.425Z,0.30
2023-01-13T03:45:00.699Z,0.40
2023-01-13T03:47:36.826Z,0.40
2023-01-13T03:50:13.093Z,0.30
2023-01-13T03:52:51.109Z,0.60
2023-01-13T03:55:26.398Z,0.40
2023-01-13T03:58:02.682Z,0.70
2023-01-13T04:00:38.872Z,0.30
2023-01-13T04:03:13.009Z,0.40
2023-01-13T04:05:48.315Z,0.30
2023-01-13T04:08:23.050Z,0.40
2023-01-13T04:10:59.503Z,0.40
2023-01-13T04:13:34.064Z,0.60
2023-01-13T04:16:07.218Z,0.40
2023-01-13T04:18:40.382Z,0.40
2023-01-13T04:21:12.683Z,0.50
2023-01-13T04:23:43.699Z,0.40
2023-01-13T04:26:14.335Z,0.40
2023-01-13T04:28:45.322Z,0.40
2023-01-13T04:31:16.177Z,0.40
2023-01-13T04:33:46.956Z,0.30
2023-01-13T04:36:19.755Z,0.40
2023-01-13T04:38:51.285Z,0.30
2023-01-13T04:41:24.390Z,0.40
2023-01-13T04:43:55.282Z,0.50
2023-01-13T04:46:27.243Z,0.40
2023-01-13T04:48:57.981Z,0.80
2023-01-13T04:51:31.295Z,1.00
2023-01-13T04:54:02.069Z,0.90
2023-01-13T04:56:32.918Z,1.00
2023-01-13T04:59:03.862Z,0.60
2023-01-13T05:01:34.627Z,0.90
2023-01-13T05:04:05.757Z,0.50
2023-01-13T05:06:36.404Z,1.20
2023-01-13T05:09:07.146Z,0.80
2023-01-13T05:11:55.292Z,0.60
2023-01-13T05:14:43.281Z,0.60
2023-01-13T05:17:18.879Z,1.20
2023-01-13T05:19:49.537Z,1.70
2023-01-13T05:22:37.895Z,1.70
2023-01-13T05:25:24.582Z,1.50
2023-01-13T05:27:57.010Z,1.40
2023-01-13T05:30:30.042Z,1.30
2023-01-13T05:33:00.812Z,1.30
2023-01-13T05:35:31.552Z,1.10
2023-01-13T05:38:02.304Z,2.20
2023-01-13T05:40:50.633Z,1.20
2023-01-13T05:43:24.703Z,1.20
2023-01-13T05:46:00.352Z,1.40
2023-01-13T05:48:33.840Z,1.10
2023-01-13T05:51:06.607Z,1.20
2023-01-13T05:53:37.375Z,1.50
2023-01-13T05:56:09.917Z,1.10
2023-01-13T05:58:40.626Z,1.40
2023-01-13T06:01:12.052Z,1.10
2023-01-13T06:03:43.035Z,1.30
2023-01-13T06:06:13.973Z,0.80
2023-01-13T06:08:44.693Z,1.20
2023-01-13T06:11:15.945Z,0.50
2023-01-13T06:13:46.794Z,0.70
2023-01-13T06:16:17.688Z,0.80
2023-01-13T06:18:48.576Z,0.90
2023-01-13T06:21:19.323Z,0.70
2023-01-13T06:23:50.052Z,1.10
2023-01-13T06:26:25.203Z,0.50
2023-01-13T06:28:55.979Z,0.50
2023-01-13T06:31:28.709Z,0.50
2023-01-13T06:34:03.801Z,0.50
2023-01-13T06:36:39.810Z,1.00
2023-01-13T06:39:15.253Z,0.40
2023-01-13T06:42:04.105Z,0.70
2023-01-13T06:44:34.952Z,0.60
2023-01-13T06:47:06.163Z,0.70
2023-01-13T06:49:37.140Z,0.30
2023-01-13T06:52:08.427Z,0.60
2023-01-13T06:54:39.133Z,0.60
2023-01-13T06:57:09.798Z,0.70
2023-01-13T06:59:40.465Z,0.60
2023-01-13T07:02:11.207Z,0.50
2023-01-13T07:04:42.177Z,0.40
2023-01-13T07:07:13.196Z,0.60
2023-01-13T07:09:44.033Z,0.70
2023-01-13T07:12:14.897Z,0.40
2023-01-13T07:15:03.479Z,0.60
2023-01-13T07:17:34.288Z,0.80
2023-01-13T07:20:05.530Z,0.60
2023-01-13T07:22:36.339Z,0.90
2023-01-13T07:25:08.673Z,0.50
2023-01-13T07:27:39.662Z,0.30
2023-01-13T07:30:12.933Z,0.50
2023-01-13T07:32:43.732Z,0.40
2023-01-13T07:35:14.675Z,0.50
2023-01-13T07:37:45.387Z,0.80
2023-01-13T07:40:16.972Z,0.70
2023-01-13T07:43:05.614Z,0.70
2023-01-13T07:45:36.413Z,0.70
2023-01-13T07:48:07.828Z,0.70
2023-01-13T07:50:38.985Z,0.70
2023-01-13T07:53:09.789Z,0.60
2023-01-13T07:55:44.096Z,0.50
2023-01-13T07:58:16.077Z,0.60
2023-01-13T08:00:46.937Z,0.60
2023-01-13T08:03:17.558Z,0.50
2023-01-13T08:05:48.685Z,0.60
2023-01-13T08:08:19.335Z,0.40
2023-01-13T08:10:50.070Z,0.80
2023-01-13T08:13:21.717Z,0.50
2023-01-13T08:15:54.124Z,0.30
2023-01-13T08:18:25.230Z,0.70
2023-01-13T08:20:57.020Z,0.40
2023-01-13T08:23:27.752Z,0.40
2023-01-13T08:26:03.382Z,0.40
2023-01-13T08:28:34.670Z,0.30
2023-01-13T08:31:07.485Z,0.60
2023-01-13T08:33:38.797Z,0.40
2023-01-13T08:36:12.447Z,0.60
2023-01-13T08:41:14.317Z,0.60
2023-01-13T08:43:45.217Z,0.30
2023-01-13T08:46:15.911Z,0.70
2023-01-13T08:48:47.034Z,0.40
2023-01-13T08:51:17.851Z,0.50
2023-01-13T08:53:48.528Z,0.30
2023-01-13T08:56:19.233Z,0.40
2023-01-13T08:58:49.998Z,0.50
2023-01-13T09:01:25.037Z,0.50
2023-01-13T09:03:56.611Z,0.40
2023-01-13T09:06:27.538Z,0.30
2023-01-13T09:08:58.275Z,0.30
2023-01-13T09:11:53.120Z,0.40
2023-01-13T09:14:25.913Z,0.30
2023-01-13T09:16:56.665Z,0.40
2023-01-13T09:19:27.491Z,0.40
2023-01-13T09:21:58.589Z,0.30
2023-01-13T09:24:29.770Z,0.40
2023-01-13T09:27:00.759Z,0.60
2023-01-13T09:29:31.704Z,0.20
2023-01-13T09:32:02.495Z,0.30
2023-01-13T09:34:50.939Z,0.40
2023-01-13T09:37:21.635Z,0.50
2023-01-13T09:39:52.421Z,0.30
2023-01-13T09:42:47.108Z,0.40
2023-01-13T09:45:21.948Z,0.60
2023-01-13T09:47:58.455Z,0.40
2023-01-13T09:50:39.723Z,0.20
2023-01-13T09:53:16.179Z,0.40
2023-01-13T09:55:46.987Z,0.40
2023-01-13T09:58:20.412Z,0.50
2023-01-13T10:01:02.729Z,0.30
2023-01-13T10:03:36.139Z,0.40
2023-01-13T10:06:16.099Z,0.30
2023-01-13T10:08:48.580Z,0.30
2023-01-13T10:11:39.305Z,0.30
2023-01-13T10:14:19.386Z,0.20
2023-01-13T10:17:01.693Z,0.10
2023-01-13T10:19:37.889Z,0.50
2023-01-13T10:22:32.430Z,0.40
2023-01-13T10:25:21.870Z,0.40
2023-01-13T10:27:55.168Z,0.20
2023-01-13T10:30:31.577Z,0.40
2023-01-13T10:33:07.525Z,0.30
2023-01-13T10:36:00.070Z,0.20
2023-01-13T10:38:37.506Z,0.20
2023-01-13T10:41:18.743Z,0.30
2023-01-13T10:44:03.647Z,0.10
2023-01-13T10:46:36.244Z,0.20
2023-01-13T10:49:28.157Z,0.30
2023-01-13T10:51:59.058Z,0.30
2023-01-13T10:54:30.135Z,0.60
2023-01-13T10:57:22.827Z,0.30
2023-01-13T10:59:54.852Z,0.30
2023-01-13T11:02:31.116Z,0.30
2023-01-13T11:05:11.165Z,0.40
2023-01-13T11:07:47.246Z,0.80
2023-01-13T11:10:27.297Z,0.20
2023-01-13T11:13:08.586Z,0.50
2023-01-13T11:15:47.495Z,0.20
2023-01-13T11:18:25.948Z,0.30
2023-01-13T11:20:59.681Z,0.30
2023-01-13T11:26:12.279Z,0.60
2023-01-13T11:28:57.002Z,0.30
2023-01-13T11:31:33.507Z,0.30
2023-01-13T11:34:09.707Z,0.30
2023-01-13T11:36:46.242Z,0.30
2023-01-13T11:39:27.676Z,0.40
2023-01-13T11:42:20.905Z,0.30
2023-01-13T11:45:01.617Z,0.60
2023-01-13T11:47:33.451Z,0.30
2023-01-13T11:50:08.278Z,0.50
2023-01-13T11:52:59.191Z,0.60
2023-01-13T11:55:40.947Z,0.40
2023-01-13T11:58:51.007Z,0.70
2023-01-13T12:01:35.994Z,0.30
2023-01-13T12:04:22.546Z,0.30
2023-01-13T12:07:00.443Z,0.50
2023-01-13T12:09:40.545Z,0.30
2023-01-13T12:12:27.860Z,0.30
2023-01-13T12:15:35.864Z,0.40
2023-01-13T12:18:27.831Z,0.70
2023-01-13T12:21:16.397Z,0.40
2023-01-13T12:23:55.851Z,0.40
2023-01-13T12:26:26.955Z,0.40
2023-01-13T12:29:00.458Z,0.40
2023-01-13T12:31:32.831Z,0.30
2023-01-13T12:34:21.141Z,0.60
2023-01-13T12:37:01.451Z,0.40
2023-01-13T12:39:42.402Z,0.50
2023-01-13T12:42:36.374Z,0.50
2023-01-13T12:45:28.635Z,0.40
2023-01-13T12:48:00.734Z,0.40
2023-01-13T12:51:01.705Z,0.40
2023-01-13T12:53:39.583Z,0.60
2023-01-13T12:56:44.697Z,0.40
2023-01-13T13:00:07.311Z,0.30
2023-01-13T13:02:40.161Z,0.40
2023-01-13T13:05:46.176Z,0.60
2023-01-13T13:08:23.511Z,0.40
2023-01-13T13:11:35.225Z,0.50
2023-01-13T13:14:07.743Z,0.70
2023-01-13T13:16:51.127Z,0.30
2023-01-13T13:19:44.172Z,0.40
2023-01-13T13:22:43.578Z,0.50
2023-01-13T13:25:30.231Z,0.50
2023-01-13T13:28:20.241Z,0.50
2023-01-13T13:31:06.278Z,0.70
2023-01-13T13:33:54.529Z,0.50
2023-01-13T13:36:45.673Z,0.40
2023-01-13T13:39:40.480Z,0.40
2023-01-13T13:42:36.731Z,0.80
2023-01-13T13:45:37.425Z,0.40
2023-01-13T13:48:27.636Z,0.30
2023-01-13T13:51:02.315Z,0.50
2023-01-13T13:53:36.801Z,0.50
2023-01-13T13:56:17.511Z,0.60
2023-01-13T13:58:52.477Z,0.60
2023-01-13T14:01:29.528Z,0.60
2023-01-13T14:04:16.306Z,0.60
2023-01-13T14:06:57.882Z,0.90
2023-01-13T14:09:30.931Z,0.50
2023-01-13T14:12:04.392Z,0.50
2023-01-13T14:14:35.702Z,0.60
2023-01-13T14:17:07.050Z,0.70
2023-01-13T14:19:44.271Z,0.90
2023-01-13T14:22:19.203Z,0.40
2023-01-13T14:24:55.516Z,0.70
2023-01-13T14:27:28.686Z,1.20
2023-01-13T14:30:01.852Z,0.70
2023-01-13T14:32:37.269Z,0.60
2023-01-13T14:35:10.810Z,0.70
2023-01-13T14:37:43.479Z,0.70
2023-01-13T14:40:47.029Z,0.80
2023-01-13T14:43:21.052Z,0.80
2023-01-13T14:46:03.587Z,0.80
2023-01-13T14:48:36.747Z,0.70
2023-01-13T14:51:10.955Z,0.60
2023-01-13T14:53:46.333Z,0.70
2023-01-13T14:56:51.312Z,0.50
2023-01-13T14:59:51.927Z,0.50
2023-01-13T15:02:40.608Z,0.60
2023-01-13T15:05:33.934Z,0.80
2023-01-13T15:08:11.453Z,0.30
2023-01-13T15:10:49.690Z,0.70
2023-01-13T15:13:44.269Z,0.60
2023-01-13T15:16:22.442Z,1.10
2023-01-13T15:18:53.702Z,1.20
2023-01-13T15:21:25.411Z,1.20
2023-01-13T15:23:56.304Z,1.10
2023-01-13T15:26:29.328Z,1.20
2023-01-13T15:29:01.879Z,1.10
2023-01-13T15:31:32.922Z,1.50
2023-01-13T15:34:03.773Z,0.90
2023-01-13T15:36:37.002Z,1.00
2023-01-13T15:39:08.359Z,1.30
2023-01-13T15:41:57.206Z,1.20
2023-01-13T15:44:45.852Z,1.10
2023-01-13T15:47:16.896Z,1.10
2023-01-13T15:49:48.910Z,0.90
2023-01-13T15:52:23.026Z,1.00
2023-01-13T15:54:55.154Z,1.00
2023-01-13T15:57:27.824Z,1.50
2023-01-13T16:00:02.102Z,1.10
2023-01-13T16:02:32.843Z,1.10
2023-01-13T16:05:04.035Z,1.00
2023-01-13T16:07:34.883Z,0.80
2023-01-13T16:10:08.473Z,1.00
2023-01-13T16:12:39.226Z,1.10
2023-01-13T16:15:13.842Z,1.00
2023-01-13T16:17:45.974Z,0.90
2023-01-13T16:20:19.122Z,0.90
2023-01-13T16:22:50.363Z,0.70
2023-01-13T16:25:23.433Z,0.90
2023-01-13T16:27:55.034Z,0.90
2023-01-13T16:30:28.907Z,1.50
2023-01-13T16:33:00.105Z,0.90
2023-01-13T16:35:32.754Z,0.80
2023-01-13T16:38:03.640Z,0.80
2023-01-13T16:40:36.563Z,1.00
2023-01-13T16:43:07.451Z,0.90
2023-01-13T16:45:38.344Z,0.90
2023-01-13T16:48:18.434Z,0.90
2023-01-13T16:51:10.100Z,0.90
2023-01-13T16:53:40.931Z,0.90
2023-01-13T16:56:22.370Z,0.80
2023-01-13T16:58:54.156Z,1.00
2023-01-13T17:01:27.207Z,0.90
2023-01-13T17:03:59.361Z,1.50
2023-01-13T17:06:37.062Z,0.90
2023-01-13T17:09:12.779Z,1.50
2023-01-13T17:11:43.640Z,0.70
2023-01-13T17:14:18.887Z,0.90
2023-01-13T17:16:50.747Z,0.60
2023-01-13T17:19:23.014Z,0.60
2023-01-13T17:21:54.232Z,0.50
2023-01-13T17:24:28.822Z,0.80
2023-01-13T17:26:59.632Z,0.70
2023-01-13T17:29:32.888Z,0.80
2023-01-13T17:32:05.099Z,0.80
2023-01-13T17:34:36.038Z,0.50
2023-01-13T17:37:06.939Z,0.70
2023-01-13T17:39:38.073Z,0.70
2023-01-13T17:42:09.073Z,0.80
2023-01-13T17:44:40.643Z,0.80
2023-01-13T17:47:11.795Z,0.70
2023-01-13T17:49:45.746Z,0.90
2023-01-13T17:52:16.536Z,1.00
2023-01-13T17:54:47.621Z,0.70
2023-01-13T17:57:18.439Z,0.60
2023-01-13T17:59:49.470Z,0.80
2023-01-13T18:02:20.580Z,0.90
2023-01-13T18:04:51.444Z,0.90
2023-01-13T18:07:22.393Z,0.60
2023-01-13T18:09:53.264Z,0.70
2023-01-13T18:12:24.267Z,0.60
2023-01-13T18:14:55.256Z,0.60
2023-01-13T18:17:26.632Z,0.60
2023-01-13T18:20:14.758Z,1.40
2023-01-13T18:23:03.028Z,0.90
2023-01-13T18:25:53.721Z,0.90
2023-01-13T18:28:25.185Z,0.60
2023-01-13T18:30:56.177Z,0.70
2023-01-13T18:33:27.620Z,0.80
2023-01-13T18:35:58.851Z,0.70
2023-01-13T18:38:30.272Z,0.90
2023-01-13T18:41:21.413Z,0.70
2023-01-13T18:43:52.567Z,0.70
2023-01-13T18:46:23.640Z,0.60
2023-01-13T18:48:54.823Z,0.80
2023-01-13T18:51:26.073Z,0.90
2023-01-13T18:53:57.162Z,0.70
2023-01-13T18:56:28.235Z,0.70
2023-01-13T18:58:59.260Z,0.50
2023-01-13T19:01:30.609Z,0.60
2023-01-13T19:04:04.012Z,1.10
2023-01-13T19:06:36.128Z,0.70
2023-01-13T19:09:08.820Z,0.60
2023-01-13T19:11:39.633Z,0.60
2023-01-13T19:14:10.593Z,1.00
2023-01-13T19:16:41.743Z,0.60
2023-01-13T19:19:12.815Z,0.90
2023-01-13T19:21:43.906Z,0.80
2023-01-13T19:24:14.775Z,0.50
2023-01-13T19:26:48.797Z,0.80
2023-01-13T19:29:20.035Z,0.80
2023-01-13T19:31:51.389Z,0.80
2023-01-13T19:34:25.308Z,0.50
2023-01-13T19:36:56.998Z,0.80
2023-01-13T19:39:27.988Z,0.70
2023-01-13T19:42:16.854Z,0.60
2023-01-13T19:45:06.122Z,0.60
2023-01-13T19:47:38.550Z,0.70
2023-01-13T19:50:10.973Z,0.80
2023-01-13T19:52:42.637Z,0.60
2023-01-13T19:55:14.823Z,0.70
2023-01-13T19:57:45.924Z,0.80
2023-01-13T20:00:20.835Z,0.60
2023-01-13T20:02:53.356Z,0.70
2023-01-13T20:05:26.244Z,0.70
2023-01-13T20:07:57.224Z,0.90
2023-01-13T20:10:30.502Z,0.60
2023-01-13T20:13:01.430Z,0.60
2023-01-13T20:15:32.730Z,0.50
2023-01-13T20:18:03.569Z,0.60
2023-01-13T20:20:34.778Z,0.70
2023-01-13T20:23:05.829Z,0.70
2023-01-13T20:25:36.869Z,1.00
2023-01-13T20:28:08.013Z,0.80
2023-01-13T20:30:40.587Z,0.50
2023-01-13T20:33:11.279Z,0.80
2023-01-13T20:35:42.522Z,0.80
2023-01-13T20:38:13.546Z,0.50
2023-01-13T20:40:45.353Z,0.60
2023-01-13T20:43:17.774Z,0.90
2023-01-13T20:45:50.026Z,1.00
2023-01-13T20:48:21.043Z,0.60
2023-01-13T20:50:59.127Z,0.80
2023-01-13T20:53:30.254Z,0.90
2023-01-13T20:56:01.404Z,0.80
2023-01-13T20:58:32.428Z,0.60
2023-01-13T21:01:03.758Z,1.90
2023-01-13T21:03:35.420Z,0.60
2023-01-13T21:06:06.999Z,0.70
2023-01-13T21:08:37.926Z,1.00
2023-01-13T21:11:10.741Z,0.70
2023-01-13T21:13:59.151Z,0.70
2023-01-13T21:16:30.518Z,0.70
2023-01-13T21:19:10.996Z,0.80
2023-01-13T21:21:42.352Z,0.60
2023-01-13T21:24:14.107Z,0.60
2023-01-13T21:26:44.978Z,1.00
2023-01-13T21:29:16.100Z,0.60
2023-01-13T21:31:47.039Z,0.70
2023-01-13T21:34:19.122Z,0.90
2023-01-13T21:36:50.234Z,0.70
2023-01-13T21:39:20.994Z,0.80
2023-01-13T21:42:09.700Z,0.70
2023-01-13T21:44:58.419Z,0.70
2023-01-13T21:47:47.192Z,1.00
2023-01-13T21:50:20.063Z,0.40
2023-01-13T21:52:53.147Z,0.70
2023-01-13T21:55:28.361Z,0.70
2023-01-13T21:58:01.138Z,1.00
2023-01-13T22:00:34.234Z,0.70
2023-01-13T22:03:08.034Z,0.50
2023-01-13T22:05:39.945Z,0.70
2023-01-13T22:08:13.352Z,0.70
2023-01-13T22:10:58.598Z,0.60
2023-01-13T22:13:51.391Z,0.40
2023-01-13T22:16:22.504Z,0.80
2023-01-13T22:18:53.697Z,0.60
2023-01-13T22:21:24.832Z,0.70
2023-01-13T22:23:56.919Z,1.10
2023-01-13T22:26:28.124Z,0.50
2023-01-13T22:28:59.435Z,0.90
2023-01-13T22:31:31.712Z,0.60
2023-01-13T22:34:02.950Z,0.60
2023-01-13T22:36:35.324Z,0.70
2023-01-13T22:39:07.348Z,0.60
2023-01-13T22:41:38.276Z,0.70
2023-01-13T22:44:09.362Z,0.70
2023-01-13T22:46:40.178Z,0.60
2023-01-13T22:49:12.209Z,0.60
2023-01-13T22:51:43.261Z,0.60
2023-01-13T22:54:14.892Z,0.60
2023-01-13T22:56:45.697Z,0.70
2023-01-13T22:59:17.095Z,0.60
2023-01-13T23:01:47.902Z,0.60
2023-01-13T23:04:19.020Z,0.80
2023-01-13T23:06:49.945Z,0.50
2023-01-13T23:09:20.934Z,0.60
2023-01-13T23:11:53.636Z,0.50
2023-01-13T23:14:24.508Z,0.50
2023-01-13T23:16:55.324Z,0.60
2023-01-13T23:19:26.330Z,0.60
2023-01-13T23:21:57.179Z,0.60
2023-01-13T23:24:29.368Z,0.60
2023-01-13T23:27:00.435Z,0.50
2023-01-13T23:29:31.602Z,0.70
2023-01-13T23:32:02.582Z,0.40
2023-01-13T23:34:33.574Z,0.50
2023-01-13T23:37:04.354Z,0.60
2023-01-13T23:39:35.409Z,0.70
2023-01-13T23:42:06.620Z,0.50
2023-01-13T23:44:37.731Z,0.60
2023-01-13T23:47:08.641Z,0.70
2023-01-13T23:49:39.610Z,0.60
2023-01-13T23:52:10.399Z,0.50
2023-01-13T23:54:41.207Z,0.60
2023-01-13T23:57:12.107Z,0.60
2023-01-13T23:59:42.945Z,0.70
